Time;durP1;ratioP1;P1;durP2;ratioP2;P2;SDS_P1;SDS_P2;PMS_P1;PMS_P2;Temp;Humidity;BMP_temperature;BMP_pressure;BME280_temperature;BME280_humidity;BME280_pressure;Samples;Min_cycle;Max_cycle;Signal;HPM_P1;HPM_P2
2022/02/25 00:01:42;;;;;;;0.80;0.70;;;3.90;94.80;;;;;;6152584;23;20220;-87
2022/02/25 00:10:16;;;;;;;0.83;0.60;;;3.50;95.80;;;;;;6109974;23;20192;-87
2022/02/25 00:15:34;;;;;;;0.90;0.60;;;3.30;96.00;;;;;;6181212;23;20175;-86
2022/02/25 00:18:22;;;;;;;2.10;0.90;;;3.30;96.40;;;;;;6158474;23;20206;-86
2022/02/25 00:20:50;;;;;;;0.83;0.80;;;3.40;96.10;;;;;;6202195;23;20221;-88
2022/02/25 00:23:17;;;;;;;0.73;0.73;;;3.50;95.80;;;;;;6175585;23;20224;-86
2022/02/25 00:25:45;;;;;;;1.07;0.70;;;3.50;95.70;;;;;;6201661;23;20171;-86
2022/02/25 00:28:19;;;;;;;1.00;0.83;;;3.50;95.40;;;;;;6174644;23;20202;-86
2022/02/25 00:30:47;;;;;;;1.13;0.80;;;3.60;95.50;;;;;;6202049;23;20175;-86
2022/02/25 00:33:16;;;;;;;2.60;0.80;;;3.50;95.40;;;;;;6202192;23;20203;-86
2022/02/25 00:35:45;;;;;;;0.83;0.70;;;3.60;95.30;;;;;;6204520;23;20182;-87
2022/02/25 00:38:14;;;;;;;2.03;1.13;;;3.60;95.20;;;;;;6203950;23;20206;-87
2022/02/25 00:40:41;;;;;;;0.80;0.70;;;3.60;94.50;;;;;;6204050;23;20201;-88
2022/02/25 00:43:08;;;;;;;1.17;0.90;;;3.60;94.40;;;;;;6203269;23;20218;-88
2022/02/25 00:45:37;;;;;;;1.17;0.90;;;3.60;94.80;;;;;;6204258;23;20206;-87
2022/02/25 00:48:17;;;;;;;0.67;0.67;;;3.70;94.80;;;;;;6202910;23;20202;-87
2022/02/25 00:50:47;;;;;;;0.97;0.80;;;3.60;94.10;;;;;;6202238;23;20246;-87
2022/02/25 00:53:15;;;;;;;2.17;0.70;;;3.60;94.30;;;;;;6202761;23;20329;-87
2022/02/25 00:55:42;;;;;;;1.70;0.80;;;3.60;94.30;;;;;;6178050;23;20186;-87
2022/02/25 00:58:10;;;;;;;0.80;0.67;;;3.60;94.80;;;;;;6203174;23;20602;-87
2022/02/25 01:00:39;;;;;;;1.87;0.80;;;3.50;94.70;;;;;;6203943;23;20194;-86
2022/02/25 01:03:06;;;;;;;0.67;0.67;;;3.50;94.80;;;;;;6203039;23;20221;-86
2022/02/25 01:05:35;;;;;;;1.77;0.80;;;3.50;94.70;;;;;;6179154;23;20178;-87
2022/02/25 01:08:15;;;;;;;2.07;0.70;;;3.40;94.70;;;;;;6188176;23;20694;-87
2022/02/25 01:10:43;;;;;;;0.83;0.70;;;3.30;94.70;;;;;;6179099;23;20167;-86
2022/02/25 01:13:10;;;;;;;1.17;0.70;;;3.30;94.70;;;;;;6202683;23;20205;-88
2022/02/25 01:15:39;;;;;;;1.13;0.70;;;3.20;94.70;;;;;;6177750;23;20197;-87
2022/02/25 01:18:08;;;;;;;2.67;0.80;;;3.10;94.90;;;;;;6203498;23;20218;-88
2022/02/25 01:20:36;;;;;;;0.90;0.90;;;3.10;95.30;;;;;;6178538;23;20206;-90
2022/02/25 01:23:07;;;;;;;1.77;0.63;;;3.00;95.60;;;;;;6202092;23;20210;-87
2022/02/25 01:25:36;;;;;;;1.27;0.90;;;2.90;96.00;;;;;;6203691;23;20167;-86
2022/02/25 01:28:05;;;;;;;2.40;0.80;;;3.00;96.50;;;;;;6153677;23;20214;-86
2022/02/25 01:30:32;;;;;;;2.20;0.90;;;2.90;96.60;;;;;;6178480;23;20213;-89
2022/02/25 01:33:01;;;;;;;1.63;1.10;;;2.90;96.70;;;;;;6177812;23;20250;-89
2022/02/25 01:35:33;;;;;;;1.27;1.10;;;3.00;97.20;;;;;;6178497;23;20222;-86
2022/02/25 01:38:04;;;;;;;1.30;1.00;;;2.90;97.00;;;;;;6177981;23;20198;-89
2022/02/25 01:40:31;;;;;;;1.53;1.10;;;2.90;97.20;;;;;;6177990;23;20208;-88
2022/02/25 01:43:00;;;;;;;1.13;0.90;;;3.00;97.30;;;;;;6204356;23;20245;-87
2022/02/25 01:45:29;;;;;;;0.87;0.67;;;3.00;97.00;;;;;;6202199;23;20675;-87
2022/02/25 01:47:56;;;;;;;1.50;1.40;;;3.10;96.70;;;;;;6177553;23;20198;-86
2022/02/25 01:50:25;;;;;;;1.47;0.83;;;3.10;96.30;;;;;;6203933;23;20213;-87
2022/02/25 01:53:00;;;;;;;3.43;0.90;;;3.10;96.20;;;;;;6201114;23;20201;-86
2022/02/25 01:55:29;;;;;;;3.83;0.77;;;3.10;96.10;;;;;;6202906;23;20202;-87
2022/02/25 01:57:56;;;;;;;1.13;0.70;;;2.90;95.90;;;;;;6202181;23;20526;-86
2022/02/25 02:00:25;;;;;;;0.90;0.73;;;2.90;96.30;;;;;;6177914;23;20206;-86
2022/02/25 02:03:00;;;;;;;0.60;0.60;;;2.90;96.10;;;;;;6176479;23;20202;-89
2022/02/25 02:05:29;;;;;;;0.73;0.63;;;2.90;96.10;;;;;;6203072;23;20186;-87
2022/02/25 02:07:57;;;;;;;1.37;0.80;;;3.00;95.90;;;;;;6190280;23;20215;-86
2022/02/25 02:10:24;;;;;;;1.00;0.70;;;3.00;95.30;;;;;;6202217;23;20175;-86
2022/02/25 02:12:51;;;;;;;1.90;0.70;;;2.90;95.00;;;;;;6176188;23;20221;-86
2022/02/25 02:15:18;;;;;;;2.20;0.77;;;2.90;95.40;;;;;;6176736;23;20175;-87
2022/02/25 02:17:46;;;;;;;1.53;0.70;;;2.90;94.60;;;;;;6200539;23;20202;-86
2022/02/25 02:20:13;;;;;;;0.90;0.60;;;2.90;94.00;;;;;;6202367;23;20186;-87
2022/02/25 02:22:43;;;;;;;1.93;1.10;;;2.80;93.20;;;;;;6150473;23;20250;-87
2022/02/25 02:25:12;;;;;;;0.60;0.60;;;2.80;92.40;;;;;;6176805;23;20205;-86
2022/02/25 02:30:25;;;;;;;0.73;0.60;;;2.90;92.70;;;;;;6199622;23;20182;-87
2022/02/25 02:32:53;;;;;;;0.60;0.60;;;2.90;92.50;;;;;;6177349;23;20567;-87
2022/02/25 02:35:20;;;;;;;0.60;0.60;;;2.90;92.80;;;;;;6176592;23;20198;-87
2022/02/25 02:37:51;;;;;;;1.60;1.10;;;2.90;93.10;;;;;;6201010;23;20221;-89
2022/02/25 02:40:18;;;;;;;0.80;0.80;;;2.90;93.30;;;;;;6201649;23;20167;-86
2022/02/25 02:42:49;;;;;;;2.53;1.00;;;2.90;93.30;;;;;;6175023;23;20214;-87
2022/02/25 02:45:16;;;;;;;0.73;0.67;;;2.90;93.10;;;;;;6202636;23;20247;-88
2022/02/25 02:47:45;;;;;;;1.33;0.90;;;2.90;93.30;;;;;;6199115;23;20649;-88
2022/02/25 02:50:13;;;;;;;0.77;0.70;;;2.90;93.00;;;;;;6201165;23;20234;-87
2022/02/25 02:52:43;;;;;;;0.90;0.77;;;2.90;93.30;;;;;;6174911;23;20178;-88
2022/02/25 02:55:12;;;;;;;1.60;0.70;;;2.80;92.90;;;;;;6176212;23;20189;-87
2022/02/25 02:57:40;;;;;;;2.00;0.97;;;2.80;92.90;;;;;;6201895;23;20198;-87
2022/02/25 03:00:09;;;;;;;0.87;0.70;;;2.70;92.90;;;;;;6176550;23;20175;-86
2022/02/25 03:02:36;;;;;;;1.20;0.93;;;2.80;92.80;;;;;;6200523;23;20198;-88
2022/02/25 03:05:04;;;;;;;1.73;0.70;;;2.80;92.80;;;;;;6176750;23;20257;-88
2022/02/25 03:07:39;;;;;;;1.70;0.70;;;2.90;92.80;;;;;;6202021;23;20230;-89
2022/02/25 03:10:07;;;;;;;2.37;1.07;;;2.80;92.80;;;;;;6201449;23;20593;-87
2022/02/25 03:12:36;;;;;;;1.67;0.83;;;2.80;91.90;;;;;;6201439;23;20178;-87
2022/02/25 03:15:08;;;;;;;1.17;0.60;;;2.70;92.60;;;;;;6176254;23;20186;-86
2022/02/25 03:17:37;;;;;;;1.27;0.77;;;2.90;91.90;;;;;;6199637;23;20179;-87
2022/02/25 03:20:05;;;;;;;0.50;0.50;;;2.90;91.80;;;;;;6151542;23;20209;-88
2022/02/25 03:22:33;;;;;;;1.00;0.70;;;3.00;91.60;;;;;;6176026;23;20230;-87
2022/02/25 03:25:00;;;;;;;1.27;0.90;;;2.90;90.90;;;;;;6200859;23;20195;-86
2022/02/25 03:27:30;;;;;;;2.13;0.80;;;2.90;91.30;;;;;;6175344;23;20234;-86
2022/02/25 03:29:59;;;;;;;1.37;0.90;;;2.90;91.80;;;;;;6200678;23;20257;-86
2022/02/25 03:32:28;;;;;;;1.23;0.90;;;2.90;91.40;;;;;;6201893;23;20181;-88
2022/02/25 03:34:55;;;;;;;1.67;1.10;;;2.90;91.30;;;;;;6150599;23;20206;-86
2022/02/25 03:37:22;;;;;;;0.90;0.67;;;2.90;91.60;;;;;;6202684;23;20234;-88
2022/02/25 03:39:50;;;;;;;0.87;0.83;;;3.00;91.40;;;;;;6201012;23;20666;-87
2022/02/25 03:42:17;;;;;;;1.90;0.90;;;3.00;91.30;;;;;;6175283;23;20198;-87
2022/02/25 03:44:46;;;;;;;2.60;0.70;;;3.00;91.50;;;;;;6200918;23;20206;-87
2022/02/25 03:47:15;;;;;;;1.00;0.80;;;3.00;91.60;;;;;;6201865;23;20201;-86
2022/02/25 03:49:43;;;;;;;2.33;0.73;;;3.10;90.70;;;;;;6173486;23;20214;-87
2022/02/25 03:52:10;;;;;;;0.80;0.70;;;3.10;90.30;;;;;;6176951;23;20186;-88
2022/02/25 03:54:39;;;;;;;0.83;0.80;;;3.10;90.40;;;;;;6126582;23;20202;-88
2022/02/25 03:57:06;;;;;;;1.27;0.90;;;3.00;90.30;;;;;;6201629;23;20189;-86
2022/02/25 03:59:34;;;;;;;1.63;1.00;;;3.00;90.50;;;;;;6150243;23;20213;-87
2022/02/25 04:02:01;;;;;;;2.70;0.80;;;2.90;90.60;;;;;;6150498;23;20199;-87
2022/02/25 04:04:30;;;;;;;1.93;0.90;;;2.90;90.50;;;;;;6200169;23;20222;-87
2022/02/25 04:07:05;;;;;;;0.90;0.83;;;2.90;90.40;;;;;;6201957;23;20189;-87
2022/02/25 04:09:41;;;;;;;1.10;0.87;;;3.00;90.60;;;;;;6201426;23;20599;-87
2022/02/25 04:12:09;;;;;;;1.53;0.83;;;2.90;90.50;;;;;;6178994;23;20190;-87
2022/02/25 04:14:36;;;;;;;2.70;1.30;;;2.90;90.80;;;;;;6202799;23;20217;-87
2022/02/25 04:17:04;;;;;;;1.17;0.57;;;3.00;90.50;;;;;;6177849;23;20230;-87
2022/02/25 04:19:34;;;;;;;2.33;0.80;;;3.00;90.40;;;;;;6177139;23;20733;-87
2022/02/25 04:22:01;;;;;;;2.50;1.10;;;3.10;89.50;;;;;;6204195;23;20190;-86
2022/02/25 04:24:28;;;;;;;1.93;0.90;;;3.10;88.50;;;;;;6177186;23;20222;-88
2022/02/25 04:26:57;;;;;;;0.83;0.77;;;3.10;90.20;;;;;;6204732;23;20178;-86
2022/02/25 04:29:24;;;;;;;1.17;0.80;;;3.10;89.00;;;;;;6202481;23;20281;-87
2022/02/25 04:31:51;;;;;;;1.80;0.87;;;3.10;89.10;;;;;;6176616;23;20186;-88
2022/02/25 04:34:20;;;;;;;1.13;0.80;;;3.00;89.80;;;;;;6201861;23;20206;-86
2022/02/25 04:36:49;;;;;;;1.40;0.83;;;3.00;89.80;;;;;;6177124;23;20218;-88
2022/02/25 04:39:16;;;;;;;1.13;0.90;;;3.10;88.90;;;;;;6162399;23;20278;-86
2022/02/25 04:41:45;;;;;;;1.77;0.97;;;3.00;87.70;;;;;;6203291;23;20198;-87
2022/02/25 04:44:22;;;;;;;1.53;1.00;;;3.00;88.40;;;;;;6176572;23;20259;-87
2022/02/25 04:46:50;;;;;;;1.40;0.83;;;3.00;88.50;;;;;;6203294;23;20225;-87
2022/02/25 04:49:21;;;;;;;1.00;0.90;;;3.00;87.70;;;;;;6176381;23;20218;-88
2022/02/25 04:51:50;;;;;;;2.00;1.00;;;3.10;87.80;;;;;;6203190;23;20179;-87
2022/02/25 04:54:18;;;;;;;1.70;0.87;;;3.00;87.70;;;;;;6176245;23;20320;-87
2022/02/25 04:56:49;;;;;;;1.60;0.90;;;3.00;87.70;;;;;;6203585;23;20198;-86
2022/02/25 04:59:16;;;;;;;1.47;0.70;;;3.00;87.70;;;;;;6178205;23;20370;-89
2022/02/25 05:01:46;;;;;;;1.93;1.00;;;2.90;87.70;;;;;;6177265;23;20254;-86
2022/02/25 05:04:15;;;;;;;0.83;0.70;;;2.90;87.70;;;;;;6152374;23;20254;-86
2022/02/25 05:06:42;;;;;;;0.93;0.77;;;2.90;87.70;;;;;;6177262;23;20230;-86
2022/02/25 05:09:11;;;;;;;1.57;0.90;;;2.90;87.50;;;;;;6202216;23;20206;-86
2022/02/25 05:11:41;;;;;;;2.30;0.90;;;2.90;87.60;;;;;;6177604;23;20178;-87
2022/02/25 05:20:15;;;;;;;2.37;1.00;;;3.00;86.70;;;;;;6202501;23;20202;-87
2022/02/25 05:22:27;;;;;;;1.53;0.87;;;2.80;87.60;;;;;;6203626;23;20201;-86
2022/02/25 05:24:56;;;;;;;0.70;0.70;;;2.80;87.60;;;;;;6201755;23;20241;-85
2022/02/25 05:27:24;;;;;;;1.47;0.80;;;2.70;87.20;;;;;;6202769;23;20187;-86
2022/02/25 05:29:51;;;;;;;1.17;0.93;;;2.70;86.30;;;;;;6201955;23;20262;-87
2022/02/25 05:32:18;;;;;;;2.20;1.00;;;2.50;87.40;;;;;;6202477;23;20179;-87
2022/02/25 05:34:48;;;;;;;1.67;0.80;;;2.60;87.50;;;;;;6202201;23;20229;-87
2022/02/25 05:37:17;;;;;;;1.80;1.20;;;2.60;87.50;;;;;;6176897;23;20170;-87
2022/02/25 05:39:45;;;;;;;2.53;0.87;;;2.60;87.50;;;;;;6176812;23;20229;-87
2022/02/25 05:42:13;;;;;;;2.23;1.47;;;2.70;85.10;;;;;;6176254;23;20217;-87
2022/02/25 05:44:40;;;;;;;2.63;0.90;;;2.80;84.80;;;;;;6199062;23;20278;-86
2022/02/25 05:47:11;;;;;;;2.83;1.10;;;2.80;84.00;;;;;;6177138;23;20182;-88
2022/02/25 05:49:38;;;;;;;2.67;1.20;;;2.70;84.70;;;;;;6177532;23;20202;-88
2022/02/25 05:52:06;;;;;;;1.60;1.20;;;2.80;84.30;;;;;;6177769;23;20189;-90
2022/02/25 05:54:33;;;;;;;1.80;0.87;;;2.70;86.30;;;;;;6176073;23;20257;-86
2022/02/25 05:57:00;;;;;;;1.27;0.90;;;2.60;86.50;;;;;;6201601;23;20186;-86
2022/02/25 05:59:30;;;;;;;0.90;0.77;;;2.60;85.80;;;;;;6175056;23;20211;-87
2022/02/25 06:01:58;;;;;;;2.97;1.10;;;2.60;85.40;;;;;;6203267;23;20197;-87
2022/02/25 06:04:25;;;;;;;1.30;1.10;;;2.60;86.40;;;;;;6176029;23;20206;-87
2022/02/25 06:06:54;;;;;;;1.57;1.07;;;2.60;87.40;;;;;;6203465;23;20174;-87
2022/02/25 06:09:22;;;;;;;2.20;0.97;;;2.60;85.90;;;;;;6202221;23;20682;-86
2022/02/25 06:11:49;;;;;;;3.33;1.20;;;2.70;86.20;;;;;;6176474;23;20206;-86
2022/02/25 06:14:16;;;;;;;1.40;1.00;;;2.70;85.80;;;;;;6175754;23;20238;-87
2022/02/25 06:17:14;;;;;;;2.57;1.00;;;2.70;86.80;;;;;;6201546;23;20182;-86
2022/02/25 06:19:41;;;;;;;2.27;0.90;;;2.60;87.50;;;;;;6200401;23;20655;-87
2022/02/25 06:22:13;;;;;;;1.00;0.97;;;2.60;87.10;;;;;;6201148;23;20585;-86
2022/02/25 06:24:41;;;;;;;2.50;0.90;;;2.60;87.40;;;;;;6203212;23;20202;-86
2022/02/25 06:27:33;;;;;;;1.67;1.10;;;2.50;87.40;;;;;;6201083;23;20182;-86
2022/02/25 06:30:04;;;;;;;2.10;1.00;;;2.50;87.40;;;;;;6192291;23;20178;-88
2022/02/25 06:32:33;;;;;;;4.17;1.10;;;2.50;87.40;;;;;;6199695;23;20178;-87
2022/02/25 06:36:01;;;;;;;1.90;1.17;;;2.60;87.50;;;;;;6198858;23;20214;-87
2022/02/25 06:38:32;;;;;;;2.40;1.20;;;2.60;86.00;;;;;;6198528;23;20198;-86
2022/02/25 06:44:24;;;;;;;2.40;1.00;;;2.60;86.20;;;;;;6200049;23;20230;-87
2022/02/25 06:46:51;;;;;;;2.43;1.10;;;2.60;85.80;;;;;;6175142;23;20178;-86
2022/02/25 06:49:19;;;;;;;6.07;1.30;;;2.50;87.10;;;;;;6174838;23;20202;-86
2022/02/25 06:51:47;;;;;;;3.60;1.23;;;2.60;87.50;;;;;;6201290;23;20305;-86
2022/02/25 06:54:14;;;;;;;2.40;1.10;;;2.60;87.00;;;;;;6149037;23;20214;-87
2022/02/25 06:56:41;;;;;;;1.50;0.90;;;2.60;86.60;;;;;;6200291;23;20178;-86
2022/02/25 06:59:09;;;;;;;2.30;1.00;;;2.60;85.50;;;;;;6199694;23;20214;-88
2022/02/25 07:01:39;;;;;;;1.73;1.10;;;2.60;86.30;;;;;;6200777;23;20511;-87
2022/02/25 07:04:06;;;;;;;3.77;1.30;;;2.70;85.30;;;;;;6200033;23;20213;-86
2022/02/25 07:06:54;;;;;;;3.00;1.10;;;2.60;85.20;;;;;;6200988;23;20190;-86
2022/02/25 07:13:19;;;;;;;5.77;1.10;;;2.80;82.70;;;;;;6199713;23;20167;-86
2022/02/25 07:15:48;;;;;;;2.57;1.10;;;2.90;81.70;;;;;;6200331;23;20181;-87
2022/02/25 07:18:16;;;;;;;1.43;0.93;;;3.00;80.10;;;;;;6200096;23;20217;-89
2022/02/25 07:20:45;;;;;;;2.87;1.23;;;3.10;79.80;;;;;;6174568;23;20178;-88
2022/02/25 07:23:16;;;;;;;3.43;1.20;;;3.10;79.50;;;;;;6171951;23;20203;-86
2022/02/25 07:29:09;;;;;;;1.70;1.03;;;3.30;76.90;;;;;;6199466;23;20245;-86
2022/02/25 07:31:36;;;;;;;4.33;1.40;;;3.30;77.00;;;;;;6126268;23;20209;-87
2022/02/25 07:34:12;;;;;;;3.67;1.33;;;3.10;77.90;;;;;;6198446;23;20209;-86
2022/02/25 07:36:39;;;;;;;1.77;1.17;;;3.10;78.10;;;;;;6200288;23;20206;-87
2022/02/25 07:39:08;;;;;;;7.53;1.23;;;3.10;77.80;;;;;;6197720;23;20225;-86
2022/02/25 07:41:35;;;;;;;5.17;1.30;;;3.10;78.30;;;;;;6172420;23;20198;-86
2022/02/25 07:44:04;;;;;;;3.83;1.10;;;3.00;77.20;;;;;;6170700;23;20588;-87
2022/02/25 07:46:31;;;;;;;7.10;1.30;;;3.00;78.10;;;;;;6196665;23;20209;-86
2022/02/25 07:48:59;;;;;;;3.40;1.50;;;2.90;78.20;;;;;;6196283;23;20655;-86
2022/02/25 07:51:27;;;;;;;3.50;1.50;;;2.90;77.60;;;;;;6170232;23;20186;-87
2022/02/25 07:53:56;;;;;;;2.63;1.23;;;2.90;77.70;;;;;;6195671;23;20241;-87
2022/02/25 07:56:24;;;;;;;4.47;1.27;;;3.10;78.50;;;;;;6170482;23;20232;-87
2022/02/25 07:58:51;;;;;;;2.87;1.20;;;3.60;72.40;;;;;;6195846;23;20255;-86
2022/02/25 08:01:21;;;;;;;1.90;1.00;;;4.00;68.70;;;;;;6197084;23;20230;-84
2022/02/25 08:03:50;;;;;;;2.90;1.10;;;4.30;69.00;;;;;;6196428;23;20257;-84
2022/02/25 08:06:17;;;;;;;2.37;1.20;;;4.60;68.70;;;;;;6194580;23;20270;-85
2022/02/25 08:08:44;;;;;;;3.87;1.30;;;4.60;67.50;;;;;;6139823;23;20281;-86
2022/02/25 08:11:11;;;;;;;4.83;1.20;;;4.60;66.10;;;;;;6168916;23;20257;-85
2022/02/25 08:13:40;;;;;;;3.00;1.40;;;4.40;69.10;;;;;;6165861;23;20202;-85
2022/02/25 08:16:08;;;;;;;2.40;1.43;;;4.70;69.50;;;;;;6168952;23;20182;-87
2022/02/25 08:18:36;;;;;;;2.70;1.20;;;5.00;67.00;;;;;;6169448;23;20206;-87
2022/02/25 08:21:03;;;;;;;1.97;1.03;;;5.10;64.60;;;;;;6185062;23;20166;-86
2022/02/25 08:23:30;;;;;;;3.07;1.10;;;4.80;69.50;;;;;;6200149;23;20211;-86
2022/02/25 08:25:57;;;;;;;2.47;1.30;;;4.50;69.20;;;;;;6167047;23;20181;-87
2022/02/25 08:28:24;;;;;;;2.87;1.20;;;4.40;69.10;;;;;;6166636;23;20230;-86
2022/02/25 08:30:53;;;;;;;1.90;1.03;;;4.50;69.30;;;;;;6193046;23;20217;-85
2022/02/25 08:33:20;;;;;;;1.57;1.00;;;4.70;69.40;;;;;;6193226;23;20194;-87
2022/02/25 08:35:58;;;;;;;1.80;1.20;;;4.80;68.00;;;;;;6191387;23;20178;-85
2022/02/25 08:38:25;;;;;;;4.53;1.40;;;4.90;65.80;;;;;;6191246;23;20218;-87
2022/02/25 08:40:53;;;;;;;2.90;1.50;;;5.20;63.60;;;;;;6140385;23;20217;-85
2022/02/25 08:43:20;;;;;;;3.37;1.40;;;5.20;60.90;;;;;;6163509;23;20222;-86
2022/02/25 08:45:47;;;;;;;4.07;1.50;;;5.20;59.30;;;;;;6190285;23;20206;-87
2022/02/25 08:48:16;;;;;;;3.97;1.30;;;5.00;59.70;;;;;;6193841;23;20277;-87
2022/02/25 08:50:44;;;;;;;5.43;1.70;;;5.00;61.50;;;;;;6194367;23;20190;-86
2022/02/25 08:53:11;;;;;;;2.80;1.33;;;5.10;61.00;;;;;;6188292;23;20282;-85
2022/02/25 08:55:38;;;;;;;3.47;1.50;;;5.30;56.90;;;;;;6188392;23;20281;-85
2022/02/25 08:58:07;;;;;;;2.07;1.13;;;5.60;56.60;;;;;;6165683;23;20202;-87
2022/02/25 09:00:34;;;;;;;8.57;3.80;;;6.00;51.00;;;;;;6173883;23;20175;-87
2022/02/25 09:03:32;;;;;;;5.43;1.20;;;6.70;48.30;;;;;;6167329;23;20230;-87
2022/02/25 09:06:09;;;;;;;6.33;2.93;;;6.90;43.50;;;;;;6191812;23;20167;-88
2022/02/25 09:08:36;;;;;;;4.30;1.70;;;7.10;45.60;;;;;;6193904;23;20241;-88
2022/02/25 09:11:07;;;;;;;5.93;2.97;;;7.60;43.20;;;;;;6169032;23;20181;-89
2022/02/25 09:17:04;;;;;;;3.15;1.55;;;8.70;34.60;;;;;;6202420;23;20159;-88
2022/02/25 09:19:33;;;;;;;10.68;3.20;;;9.60;29.00;;;;;;6201452;23;20220;-89
2022/02/25 09:46:30;;;;;;;3.33;1.88;;;14.60;15.60;;;;;;5964009;23;20196;-93
2022/02/25 09:52:18;;;;;;;5.47;2.05;;;15.50;14.20;;;;;;6187776;23;20175;-89
2022/02/25 09:54:47;;;;;;;5.78;1.77;;;15.40;14.80;;;;;;6168370;23;20202;-90
2022/02/25 09:57:34;;;;;;;4.07;1.98;;;14.80;12.70;;;;;;6115487;23;20204;-91
2022/02/25 10:00:03;;;;;;;3.55;2.00;;;13.80;13.20;;;;;;6186687;23;20282;-90
2022/02/25 10:02:41;;;;;;;2.97;1.77;;;13.40;13.90;;;;;;6198968;23;20174;-91
2022/02/25 10:11:30;;;;;;;6.30;1.48;;;13.50;13.40;;;;;;6089040;23;20173;-90
2022/02/25 10:14:18;;;;;;;2.10;1.45;;;13.50;15.10;;;;;;6085429;23;20177;-90
2022/02/25 10:30:32;;;;;;;3.30;1.40;;;9.20;19.50;;;;;;6016622;23;20194;-91
2022/02/25 10:33:07;;;;;;;4.38;1.40;;;8.40;20.20;;;;;;6049104;23;20174;-90
2022/02/25 10:35:40;;;;;;;3.25;1.35;;;7.70;23.40;;;;;;6161821;23;20179;-90
2022/02/25 10:38:17;;;;;;;4.03;1.40;;;7.20;23.00;;;;;;6159011;23;20298;-90
2022/02/25 10:40:47;;;;;;;3.75;1.40;;;6.90;22.80;;;;;;6163329;23;20205;-89
2022/02/25 10:43:26;;;;;;;4.93;1.55;;;6.90;22.80;;;;;;6192954;23;20202;-93
2022/02/25 10:45:56;;;;;;;2.93;1.23;;;6.60;22.60;;;;;;6194713;23;20211;-89
2022/02/25 10:48:32;;;;;;;5.57;1.50;;;6.60;23.70;;;;;;6206450;23;20210;-88
2022/02/25 10:51:01;;;;;;;3.53;1.25;;;6.80;23.40;;;;;;6200558;23;20619;-89
2022/02/25 10:53:30;;;;;;;4.70;1.20;;;7.10;23.70;;;;;;6196031;23;20194;-89
2022/02/25 10:56:06;;;;;;;3.25;1.23;;;7.50;23.20;;;;;;6196012;23;20182;-88
2022/02/25 10:58:43;;;;;;;5.68;1.70;;;7.60;23.30;;;;;;6194926;23;20262;-88
2022/02/25 11:01:13;;;;;;;4.95;1.73;;;7.30;23.10;;;;;;6169972;23;20174;-88
2022/02/25 11:03:41;;;;;;;5.13;1.40;;;7.00;22.90;;;;;;6196325;23;20206;-88
2022/02/25 11:06:11;;;;;;;3.28;1.23;;;7.10;25.10;;;;;;6195364;23;20182;-88
2022/02/25 11:08:39;;;;;;;3.80;1.25;;;7.20;23.00;;;;;;6193792;23;20478;-87
2022/02/25 11:11:07;;;;;;;4.93;1.50;;;6.80;22.80;;;;;;6197943;23;20223;-90
2022/02/25 11:13:36;;;;;;;6.72;1.60;;;6.70;23.90;;;;;;6138698;23;20215;-89
2022/02/25 11:16:06;;;;;;;6.50;2.03;;;6.40;25.20;;;;;;6169889;23;20166;-85
2022/02/25 11:18:41;;;;;;;4.40;1.80;;;6.20;25.90;;;;;;6184730;23;20535;-87
2022/02/25 11:21:09;;;;;;;6.70;1.80;;;6.20;26.00;;;;;;6186473;23;20217;-85
2022/02/25 11:23:38;;;;;;;3.17;1.80;;;6.50;26.40;;;;;;6182465;23;20556;-84
2022/02/25 11:26:05;;;;;;;2.37;1.20;;;6.90;28.70;;;;;;6194600;23;20354;-87
2022/02/25 11:28:33;;;;;;;2.77;1.30;;;7.30;24.60;;;;;;6192896;23;20265;-86
2022/02/25 11:31:06;;;;;;;2.43;1.10;;;7.60;23.30;;;;;;6190850;23;20175;-88
2022/02/25 11:33:35;;;;;;;5.60;1.50;;;8.00;24.90;;;;;;6193629;23;20642;-87
2022/02/25 11:36:05;;;;;;;2.63;1.40;;;8.30;23.80;;;;;;6167315;23;20178;-86
2022/02/25 11:38:34;;;;;;;1.70;1.10;;;8.10;20.90;;;;;;6190030;23;20237;-84
2022/02/25 11:41:04;;;;;;;3.23;1.20;;;8.00;20.30;;;;;;6190343;23;20178;-87
2022/02/25 11:43:44;;;;;;;4.77;1.30;;;8.00;23.60;;;;;;6190524;23;20536;-87
2022/02/25 11:46:14;;;;;;;2.53;1.20;;;8.20;23.70;;;;;;6196426;23;20166;-86
2022/02/25 11:51:41;;;;;;;2.20;0.98;;;8.50;20.90;;;;;;6196709;23;20184;-88
2022/02/25 11:54:34;;;;;;;2.50;1.33;;;8.90;23.50;;;;;;6170554;23;20210;-89
2022/02/25 11:57:23;;;;;;;2.28;1.00;;;9.00;19.80;;;;;;6198415;23;20171;-88
2022/02/25 12:00:27;;;;;;;2.05;1.13;;;8.80;20.30;;;;;;6169007;23;20541;-88
2022/02/25 12:03:16;;;;;;;5.25;1.83;;;8.80;20.40;;;;;;6193455;23;20174;-87
2022/02/25 12:06:25;;;;;;;2.35;1.35;;;8.40;24.10;;;;;;6171476;23;20179;-87
2022/02/25 12:09:36;;;;;;;3.50;1.33;;;8.30;23.80;;;;;;6199173;23;20175;-94
2022/02/25 12:12:36;;;;;;;4.22;1.30;;;7.80;23.40;;;;;;6194204;23;20170;-90
2022/02/25 12:15:07;;;;;;;3.17;1.45;;;7.30;27.10;;;;;;6189159;23;20233;-89
2022/02/25 12:20:36;;;;;;;2.63;1.10;;;7.00;26.90;;;;;;6195052;23;20548;-88
2022/02/25 12:23:06;;;;;;;3.73;1.40;;;6.80;27.40;;;;;;6167353;23;20212;-88
2022/02/25 12:25:52;;;;;;;3.43;1.47;;;6.50;28.70;;;;;;6193187;23;20653;-89
2022/02/25 12:28:49;;;;;;;3.13;1.50;;;6.70;29.90;;;;;;6193759;23;20213;-89
2022/02/25 12:31:19;;;;;;;1.97;1.27;;;7.10;28.00;;;;;;6196265;23;20178;-88
2022/02/25 12:34:05;;;;;;;3.10;1.60;;;7.10;22.90;;;;;;6165023;23;20215;-88
2022/02/25 12:36:44;;;;;;;2.17;1.53;;;6.80;24.10;;;;;;6168919;23;20186;-89
2022/02/25 12:39:31;;;;;;;6.93;1.70;;;6.80;25.40;;;;;;6166458;23;20206;-87
2022/02/25 12:42:02;;;;;;;2.57;1.20;;;6.90;22.80;;;;;;6167198;23;20189;-88
2022/02/25 12:44:55;;;;;;;4.83;1.87;;;7.00;24.50;;;;;;6197165;23;20234;-90
2022/02/25 12:47:22;;;;;;;5.10;1.30;;;6.90;22.80;;;;;;6174077;23;20245;-87
2022/02/25 12:49:51;;;;;;;3.70;1.17;;;6.90;26.50;;;;;;6172731;23;20252;-88
2022/02/25 12:59:01;;;;;;;7.27;1.60;;;7.80;23.40;;;;;;6194795;23;20217;-88
2022/02/25 13:01:31;;;;;;;2.23;1.33;;;7.80;23.50;;;;;;6191607;23;20163;-88
2022/02/25 13:04:01;;;;;;;2.23;1.47;;;7.70;23.50;;;;;;6194606;23;20749;-88
2022/02/25 13:06:29;;;;;;;2.83;1.43;;;7.80;23.40;;;;;;6195487;23;20259;-88
2022/02/25 13:08:58;;;;;;;2.53;1.47;;;7.70;23.40;;;;;;6168854;23;20605;-88
2022/02/25 13:11:26;;;;;;;4.17;1.60;;;7.40;23.20;;;;;;6195360;23;20233;-87
2022/02/25 13:13:54;;;;;;;5.90;1.60;;;7.00;26.20;;;;;;6193810;23;20266;-85
2022/02/25 13:16:25;;;;;;;3.17;1.40;;;6.60;25.30;;;;;;6207289;23;20175;-84
2022/02/25 13:18:54;;;;;;;3.27;1.40;;;6.20;27.90;;;;;;6196921;23;20221;-85
2022/02/25 13:21:21;;;;;;;6.73;1.53;;;6.20;30.00;;;;;;6194653;23;20178;-86
2022/02/25 13:23:50;;;;;;;4.13;1.67;;;6.10;31.30;;;;;;6193050;23;20210;-86
2022/02/25 13:26:22;;;;;;;6.73;1.53;;;6.10;30.40;;;;;;6196137;23;20167;-86
2022/02/25 13:28:50;;;;;;;4.43;1.73;;;5.90;32.80;;;;;;6193649;23;20812;-86
2022/02/25 13:31:26;;;;;;;2.80;1.40;;;5.60;32.80;;;;;;6170534;23;20193;-86
2022/02/25 13:33:57;;;;;;;4.47;1.63;;;5.60;33.90;;;;;;6166247;23;20213;-85
2022/02/25 13:36:24;;;;;;;2.80;1.50;;;5.80;34.50;;;;;;6170261;23;20182;-86
2022/02/25 13:38:57;;;;;;;2.57;1.50;;;5.80;32.30;;;;;;6144683;23;20210;-85
2022/02/25 13:41:32;;;;;;;2.60;1.20;;;5.70;34.90;;;;;;6197290;23;20179;-89
2022/02/25 13:43:59;;;;;;;8.30;1.83;;;5.50;38.50;;;;;;6170350;23;20229;-88
2022/02/25 13:46:28;;;;;;;5.57;1.60;;;5.20;44.50;;;;;;6198005;23;20179;-86
2022/02/25 13:54:39;;;;;;;5.23;1.70;;;5.40;50.40;;;;;;6194219;23;20269;-85
2022/02/25 13:57:07;;;;;;;7.63;1.83;;;5.70;43.60;;;;;;6198372;23;20193;-87
2022/02/25 14:00:06;;;;;;;4.17;1.80;;;5.80;37.30;;;;;;6155320;23;20202;-89
2022/02/25 14:02:35;;;;;;;5.17;1.70;;;6.00;35.10;;;;;;6197126;23;20181;-86
2022/02/25 14:05:06;;;;;;;2.50;1.30;;;6.20;32.60;;;;;;6194110;23;20260;-88
2022/02/25 14:07:36;;;;;;;4.90;1.50;;;6.30;31.20;;;;;;6199462;23;20159;-89
2022/02/25 14:10:07;;;;;;;4.37;1.57;;;6.50;30.80;;;;;;6199523;23;20218;-87
2022/02/25 14:12:44;;;;;;;3.37;1.67;;;6.80;29.20;;;;;;6199890;23;20242;-85
2022/02/25 14:15:12;;;;;;;3.67;1.80;;;6.80;30.00;;;;;;6199029;23;20285;-88
2022/02/25 14:17:43;;;;;;;3.73;1.30;;;6.80;29.40;;;;;;6199359;23;20535;-85
2022/02/25 14:20:16;;;;;;;3.07;1.40;;;6.60;29.40;;;;;;6201367;23;20167;-88
2022/02/25 14:22:47;;;;;;;4.17;1.70;;;6.70;28.90;;;;;;6173143;23;20171;-86
2022/02/25 14:25:26;;;;;;;2.60;1.40;;;6.80;28.80;;;;;;6201688;23;20205;-88
2022/02/25 14:27:59;;;;;;;4.37;2.00;;;6.80;30.50;;;;;;6200652;23;20721;-85
2022/02/25 14:30:31;;;;;;;4.23;1.80;;;6.60;29.00;;;;;;6200532;23;20214;-86
2022/02/25 14:33:04;;;;;;;2.50;1.30;;;6.30;31.10;;;;;;6199360;23;20171;-86
2022/02/25 14:35:35;;;;;;;3.67;1.57;;;6.20;30.80;;;;;;6201933;23;20174;-84
2022/02/25 14:38:03;;;;;;;3.03;1.60;;;6.10;29.80;;;;;;6200720;23;20229;-87
2022/02/25 14:40:30;;;;;;;5.17;1.57;;;6.20;31.00;;;;;;6201384;23;20194;-84
2022/02/25 14:42:58;;;;;;;3.53;1.70;;;6.20;29.60;;;;;;6199084;23;20175;-83
2022/02/25 14:45:26;;;;;;;3.00;1.70;;;6.20;29.30;;;;;;6197569;23;20198;-82
2022/02/25 14:47:54;;;;;;;5.30;1.63;;;6.20;29.30;;;;;;6198154;23;20644;-83
2022/02/25 14:50:21;;;;;;;6.00;1.77;;;6.10;30.90;;;;;;6198667;23;20190;-89
2022/02/25 14:52:51;;;;;;;4.67;1.40;;;5.80;31.00;;;;;;6169872;23;20198;-88
2022/02/25 14:55:20;;;;;;;4.37;1.67;;;5.70;31.90;;;;;;6173046;23;20198;-88